Terminal Aerodrome Forecast
Issued by NWS

Home | Current Version | Previous Version | Graphics & Text | Print | Product List | Glossary On
Versions: 1 2 3 4 5 6 7 8 9 10 11 12 13 14 15
000
FTUS45 KGGW 260536
TAFSDY
TAF
KSDY 260536Z 2606/2706 33005KT P6SM SCT014 BKN035
     FM260900 19004KT 3SM BR SCT004 OVC012
     FM261100 19005KT 1/2SM FG SCT001 OVC010
     FM261400 20006KT 3/4SM BR SCT002 OVC009
     FM262000 27013KT P6SM OVC020
     FM270100 32008KT P6SM BKN035=

USA.gov is the U.S. government's official web portal to all federal, state and local government web resources and services.